sensor_id;sensor_type;location;lat;lon;timestamp;pressure;altitude;pressure_sealevel;temperature;humidity
57568;BME280;43403;51.948;5.922;2022-08-03T00:01:48;101487.25;;;22.16;100.00
57568;BME280;43403;51.948;5.922;2022-08-03T00:04:15;101486.63;;;22.14;100.00
57568;BME280;43403;51.948;5.922;2022-08-03T00:06:41;101488.50;;;22.13;100.00
57568;BME280;43403;51.948;5.922;2022-08-03T00:09:08;101475.75;;;22.08;100.00
57568;BME280;43403;51.948;5.922;2022-08-03T00:11:35;101475.56;;;22.03;100.00
57568;BME280;43403;51.948;5.922;2022-08-03T00:14:04;101485.22;;;21.98;100.00
57568;BME280;43403;51.948;5.922;2022-08-03T00:16:31;101479.66;;;21.92;100.00
57568;BME280;43403;51.948;5.922;2022-08-03T00:18:58;101480.47;;;21.86;100.00
57568;BME280;43403;51.948;5.922;2022-08-03T00:21:27;101474.91;;;21.81;100.00
57568;BME280;43403;51.948;5.922;2022-08-03T00:23:53;101482.94;;;21.75;100.00
57568;BME280;43403;51.948;5.922;2022-08-03T00:26:20;101469.78;;;21.73;100.00
57568;BME280;43403;51.948;5.922;2022-08-03T00:28:47;101473.28;;;21.67;100.00
57568;BME280;43403;51.948;5.922;2022-08-03T00:31:13;101481.91;;;21.62;100.00
57568;BME280;43403;51.948;5.922;2022-08-03T00:33:40;101482.72;;;21.56;100.00
57568;BME280;43403;51.948;5.922;2022-08-03T00:36:27;101489.50;;;21.59;100.00
57568;BME280;43403;51.948;5.922;2022-08-03T00:38:54;101481.06;;;21.55;100.00
57568;BME280;43403;51.948;5.922;2022-08-03T00:41:21;101483.13;;;21.53;100.00
57568;BME280;43403;51.948;5.922;2022-08-03T00:43:47;101486.19;;;21.50;100.00
57568;BME280;43403;51.948;5.922;2022-08-03T00:46:13;101480.44;;;21.46;100.00
57568;BME280;43403;51.948;5.922;2022-08-03T00:48:47;101477.72;;;21.40;100.00
57568;BME280;43403;51.948;5.922;2022-08-03T00:51:14;101477.53;;;21.35;100.00
57568;BME280;43403;51.948;5.922;2022-08-03T00:53:40;101481.19;;;21.33;100.00
57568;BME280;43403;51.948;5.922;2022-08-03T00:56:07;101469.28;;;21.29;100.00
57568;BME280;43403;51.948;5.922;2022-08-03T00:58:33;101464.56;;;21.31;100.00
57568;BME280;43403;51.948;5.922;2022-08-03T01:01:00;101463.97;;;21.36;100.00
57568;BME280;43403;51.948;5.922;2022-08-03T01:03:26;101461.72;;;21.33;100.00
57568;BME280;43403;51.948;5.922;2022-08-03T01:06:16;101460.28;;;21.37;100.00
57568;BME280;43403;51.948;5.922;2022-08-03T01:09:08;101465.19;;;21.33;100.00
57568;BME280;43403;51.948;5.922;2022-08-03T01:11:42;101460.88;;;21.32;100.00
57568;BME280;43403;51.948;5.922;2022-08-03T01:14:54;101458.00;;;21.27;100.00
57568;BME280;43403;51.948;5.922;2022-08-03T01:17:24;101460.84;;;21.26;100.00
57568;BME280;43403;51.948;5.922;2022-08-03T01:22:59;101459.81;;;21.20;100.00
57568;BME280;43403;51.948;5.922;2022-08-03T01:28:21;101457.34;;;21.19;100.00
57568;BME280;43403;51.948;5.922;2022-08-03T01:30:52;101457.34;;;21.19;100.00
57568;BME280;43403;51.948;5.922;2022-08-03T01:33:23;101459.81;;;21.20;100.00
57568;BME280;43403;51.948;5.922;2022-08-03T01:35:57;101456.53;;;21.18;100.00
57568;BME280;43403;51.948;5.922;2022-08-03T01:38:27;101451.63;;;21.15;100.00
57568;BME280;43403;51.948;5.922;2022-08-03T01:40:55;101455.09;;;21.16;100.00
57568;BME280;43403;51.948;5.922;2022-08-03T01:43:24;101452.81;;;21.12;100.00
57568;BME280;43403;51.948;5.922;2022-08-03T01:46:13;101451.78;;;21.07;100.00
57568;BME280;43403;51.948;5.922;2022-08-03T01:48:42;101454.66;;;21.05;100.00
57568;BME280;43403;51.948;5.922;2022-08-03T01:51:10;101449.72;;;20.96;100.00
57568;BME280;43403;51.948;5.922;2022-08-03T01:53:39;101445.81;;;20.91;100.00
57568;BME280;43403;51.948;5.922;2022-08-03T01:56:10;101448.66;;;20.90;100.00
57568;BME280;43403;51.948;5.922;2022-08-03T01:58:39;101441.84;;;20.87;100.00
57568;BME280;43403;51.948;5.922;2022-08-03T02:01:08;101448.63;;;20.83;100.00
57568;BME280;43403;51.948;5.922;2022-08-03T02:03:37;101444.31;;;20.82;100.00
57568;BME280;43403;51.948;5.922;2022-08-03T02:06:25;101442.22;;;20.78;100.00
57568;BME280;43403;51.948;5.922;2022-08-03T02:09:13;101438.94;;;20.76;100.00
57568;BME280;43403;51.948;5.922;2022-08-03T02:11:41;101444.25;;;20.69;100.00
57568;BME280;43403;51.948;5.922;2022-08-03T02:14:09;101440.53;;;20.63;100.00
57568;BME280;43403;51.948;5.922;2022-08-03T02:16:36;101435.97;;;20.57;100.00
57568;BME280;43403;51.948;5.922;2022-08-03T02:19:05;101438.19;;;20.53;100.00
57568;BME280;43403;51.948;5.922;2022-08-03T02:21:35;101441.91;;;20.52;100.00
57568;BME280;43403;51.948;5.922;2022-08-03T02:24:22;101443.50;;;20.47;100.00
57568;BME280;43403;51.948;5.922;2022-08-03T02:26:50;101440.84;;;20.47;100.00
57568;BME280;43403;51.948;5.922;2022-08-03T02:29:20;101437.56;;;20.45;100.00
57568;BME280;43403;51.948;5.922;2022-08-03T02:32:09;101440.00;;;20.46;100.00
57568;BME280;43403;51.948;5.922;2022-08-03T02:34:39;101434.03;;;20.44;100.00
57568;BME280;43403;51.948;5.922;2022-08-03T02:37:08;101436.94;;;20.43;100.00
57568;BME280;43403;51.948;5.922;2022-08-03T02:39:35;101432.78;;;20.40;100.00
57568;BME280;43403;51.948;5.922;2022-08-03T02:42:04;101426.84;;;20.38;100.00
57568;BME280;43403;51.948;5.922;2022-08-03T02:44:34;101425.59;;;20.34;100.00
57568;BME280;43403;51.948;5.922;2022-08-03T02:47:06;101424.16;;;20.31;100.00
57568;BME280;43403;51.948;5.922;2022-08-03T02:49:34;101426.56;;;20.26;100.00
57568;BME280;43403;51.948;5.922;2022-08-03T02:52:18;101429.66;;;20.23;100.00
57568;BME280;43403;51.948;5.922;2022-08-03T02:54:48;101428.16;;;20.21;100.00
57568;BME280;43403;51.948;5.922;2022-08-03T02:57:16;101425.09;;;20.17;100.00
57568;BME280;43403;51.948;5.922;2022-08-03T02:59:45;101417.69;;;20.12;100.00
57568;BME280;43403;51.948;5.922;2022-08-03T03:02:13;101423.19;;;20.11;100.00
57568;BME280;43403;51.948;5.922;2022-08-03T03:04:41;101426.63;;;20.05;100.00
57568;BME280;43403;51.948;5.922;2022-08-03T03:07:28;101418.03;;;20.03;100.00
57568;BME280;43403;51.948;5.922;2022-08-03T03:10:06;101424.38;;;20.02;100.00
57568;BME280;43403;51.948;5.922;2022-08-03T03:12:34;101424.13;;;19.97;100.00
57568;BME280;43403;51.948;5.922;2022-08-03T03:15:04;101421.88;;;19.93;100.00
57568;BME280;43403;51.948;5.922;2022-08-03T03:17:32;101420.41;;;19.91;100.00
57568;BME280;43403;51.948;5.922;2022-08-03T03:19:59;101423.69;;;19.93;100.00
57568;BME280;43403;51.948;5.922;2022-08-03T03:22:26;101418.19;;;19.94;100.00
57568;BME280;43403;51.948;5.922;2022-08-03T03:24:54;101424.72;;;19.92;100.00
57568;BME280;43403;51.948;5.922;2022-08-03T03:27:21;101420.16;;;19.86;100.00
57568;BME280;43403;51.948;5.922;2022-08-03T03:29:48;101411.16;;;19.87;100.00
57568;BME280;43403;51.948;5.922;2022-08-03T03:32:15;101414.00;;;19.85;100.00
57568;BME280;43403;51.948;5.922;2022-08-03T03:34:42;101416.66;;;19.85;100.00
57568;BME280;43403;51.948;5.922;2022-08-03T03:37:09;101414.00;;;19.85;100.00
57568;BME280;43403;51.948;5.922;2022-08-03T03:39:36;101410.09;;;19.81;100.00
57568;BME280;43403;51.948;5.922;2022-08-03T03:42:03;101409.91;;;19.83;100.00
57568;BME280;43403;51.948;5.922;2022-08-03T03:44:30;101413.53;;;19.75;100.00
57568;BME280;43403;51.948;5.922;2022-08-03T03:46:57;101418.22;;;19.73;100.00
57568;BME280;43403;51.948;5.922;2022-08-03T03:49:23;101407.94;;;19.70;100.00
57568;BME280;43403;51.948;5.922;2022-08-03T03:51:54;101413.63;;;19.67;100.00
57568;BME280;43403;51.948;5.922;2022-08-03T03:54:20;101410.06;;;19.60;100.00
57568;BME280;43403;51.948;5.922;2022-08-03T03:56:50;101411.88;;;19.52;100.00
57568;BME280;43403;51.948;5.922;2022-08-03T03:59:17;101419.66;;;19.54;100.00
57568;BME280;43403;51.948;5.922;2022-08-03T04:01:44;101415.72;;;19.50;100.00
57568;BME280;43403;51.948;5.922;2022-08-03T04:04:10;101416.56;;;19.50;100.00
57568;BME280;43403;51.948;5.922;2022-08-03T04:06:56;101417.13;;;19.46;100.00
57568;BME280;43403;51.948;5.922;2022-08-03T04:09:41;101416.75;;;19.49;100.00
57568;BME280;43403;51.948;5.922;2022-08-03T04:12:40;101416.94;;;19.47;100.00
57568;BME280;43403;51.948;5.922;2022-08-03T04:15:17;101415.09;;;19.48;100.00
57568;BME280;43403;51.948;5.922;2022-08-03T04:17:46;101423.25;;;19.46;100.00
57568;BME280;43403;51.948;5.922;2022-08-03T04:20:17;101421.19;;;19.42;100.00
57568;BME280;43403;51.948;5.922;2022-08-03T04:22:48;101422.00;;;19.42;100.00
57568;BME280;43403;51.948;5.922;2022-08-03T04:25:17;101423.84;;;19.42;100.00
57568;BME280;43403;51.948;5.922;2022-08-03T04:27:46;101425.69;;;19.41;100.00
57568;BME280;43403;51.948;5.922;2022-08-03T04:30:35;101421.81;;;19.44;100.00
57568;BME280;43403;51.948;5.922;2022-08-03T04:33:02;101415.84;;;19.42;100.00
57568;BME280;43403;51.948;5.922;2022-08-03T04:35:32;101420.19;;;19.43;100.00
57568;BME280;43403;51.948;5.922;2022-08-03T04:38:19;101427.31;;;19.42;100.00
57568;BME280;43403;51.948;5.922;2022-08-03T04:40:46;101425.28;;;19.44;100.00
57568;BME280;43403;51.948;5.922;2022-08-03T04:43:13;101426.31;;;19.43;100.00
57568;BME280;43403;51.948;5.922;2022-08-03T04:45:42;101426.13;;;19.45;100.00
57568;BME280;43403;51.948;5.922;2022-08-03T04:48:09;101426.19;;;19.51;100.00
57568;BME280;43403;51.948;5.922;2022-08-03T04:50:35;101432.53;;;19.50;100.00
57568;BME280;43403;51.948;5.922;2022-08-03T04:53:02;101424.34;;;19.52;100.00
57568;BME280;43403;51.948;5.922;2022-08-03T04:55:30;101436.25;;;19.56;100.00
57568;BME280;43403;51.948;5.922;2022-08-03T04:58:00;101435.88;;;19.59;100.00
57568;BME280;43403;51.948;5.922;2022-08-03T05:00:28;101436.31;;;19.63;100.00
57568;BME280;43403;51.948;5.922;2022-08-03T05:02:54;101440.88;;;19.69;100.00
57568;BME280;43403;51.948;5.922;2022-08-03T05:05:21;101443.63;;;19.75;100.00
57568;BME280;43403;51.948;5.922;2022-08-03T05:07:48;101442.22;;;19.80;100.00
57568;BME280;43403;51.948;5.922;2022-08-03T05:10:16;101441.25;;;19.87;100.00
57568;BME280;43403;51.948;5.922;2022-08-03T05:12:44;101438.22;;;19.90;100.00
57568;BME280;43403;51.948;5.922;2022-08-03T05:15:11;101439.09;;;19.98;100.00
57568;BME280;43403;51.948;5.922;2022-08-03T05:17:38;101444.28;;;20.06;100.00
57568;BME280;43403;51.948;5.922;2022-08-03T05:20:05;101450.44;;;20.13;100.00
57568;BME280;43403;51.948;5.922;2022-08-03T05:22:32;101446.41;;;20.17;100.00
57568;BME280;43403;51.948;5.922;2022-08-03T05:24:59;101451.94;;;20.22;100.00
57568;BME280;43403;51.948;5.922;2022-08-03T05:27:26;101452.19;;;20.27;100.00
57568;BME280;43403;51.948;5.922;2022-08-03T05:29:52;101451.78;;;20.30;100.00
57568;BME280;43403;51.948;5.922;2022-08-03T05:32:19;101458.59;;;20.33;100.00
57568;BME280;43403;51.948;5.922;2022-08-03T05:34:46;101459.22;;;20.35;100.00
57568;BME280;43403;51.948;5.922;2022-08-03T05:37:12;101453.69;;;20.37;100.00
57568;BME280;43403;51.948;5.922;2022-08-03T05:39:39;101454.13;;;20.40;100.00
57568;BME280;43403;51.948;5.922;2022-08-03T05:42:05;101454.53;;;20.44;100.00
57568;BME280;43403;51.948;5.922;2022-08-03T05:44:32;101459.31;;;20.48;100.00
57568;BME280;43403;51.948;5.922;2022-08-03T05:46:58;101444.75;;;20.51;100.00
57568;BME280;43403;51.948;5.922;2022-08-03T05:49:25;101460.97;;;20.56;100.00
57568;BME280;43403;51.948;5.922;2022-08-03T05:51:51;101458.75;;;20.60;100.00
57568;BME280;43403;51.948;5.922;2022-08-03T05:54:36;101456.94;;;20.60;100.00
57568;BME280;43403;51.948;5.922;2022-08-03T05:57:22;101460.22;;;20.62;100.00
57568;BME280;43403;51.948;5.922;2022-08-03T05:59:48;101463.53;;;20.64;100.00
57568;BME280;43403;51.948;5.922;2022-08-03T06:02:27;101470.72;;;20.70;100.00
57568;BME280;43403;51.948;5.922;2022-08-03T06:04:53;101463.34;;;20.72;100.00
57568;BME280;43403;51.948;5.922;2022-08-03T06:07:20;101468.69;;;20.79;100.00
57568;BME280;43403;51.948;5.922;2022-08-03T06:09:46;101461.72;;;20.78;100.00
57568;BME280;43403;51.948;5.922;2022-08-03T06:12:33;101475.28;;;20.83;100.00
57568;BME280;43403;51.948;5.922;2022-08-03T06:15:02;101469.78;;;20.91;100.00
57568;BME280;43403;51.948;5.922;2022-08-03T06:17:29;101468.56;;;20.94;100.00
57568;BME280;43403;51.948;5.922;2022-08-03T06:20:04;101467.97;;;20.99;100.00
57568;BME280;43403;51.948;5.922;2022-08-03T06:22:30;101471.66;;;21.04;100.00
57568;BME280;43403;51.948;5.922;2022-08-03T06:24:57;101476.41;;;21.09;100.00
57568;BME280;43403;51.948;5.922;2022-08-03T06:27:29;101478.25;;;21.08;100.00
57568;BME280;43403;51.948;5.922;2022-08-03T06:30:03;101475.41;;;21.17;100.00
57568;BME280;43403;51.948;5.922;2022-08-03T06:32:29;101474.19;;;21.19;100.00
57568;BME280;43403;51.948;5.922;2022-08-03T06:34:56;101480.53;;;21.18;100.00
57568;BME280;43403;51.948;5.922;2022-08-03T06:37:22;101477.69;;;21.26;100.00
57568;BME280;43403;51.948;5.922;2022-08-03T06:39:49;101483.25;;;21.31;100.00
57568;BME280;43403;51.948;5.922;2022-08-03T06:42:16;101479.97;;;21.36;100.00
57568;BME280;43403;51.948;5.922;2022-08-03T06:44:43;101483.25;;;21.38;100.00
57568;BME280;43403;51.948;5.922;2022-08-03T06:47:09;101483.31;;;21.45;100.00
57568;BME280;43403;51.948;5.922;2022-08-03T06:49:36;101490.47;;;21.44;100.00
57568;BME280;43403;51.948;5.922;2022-08-03T06:52:03;101477.16;;;21.51;100.00
57568;BME280;43403;51.948;5.922;2022-08-03T06:54:32;101482.94;;;21.55;100.00
57568;BME280;43403;51.948;5.922;2022-08-03T06:56:59;101487.41;;;21.54;100.00
57568;BME280;43403;51.948;5.922;2022-08-03T06:59:26;101489.31;;;21.60;100.00
57568;BME280;43403;51.948;5.922;2022-08-03T07:02:12;101479.25;;;21.62;100.00
57568;BME280;43403;51.948;5.922;2022-08-03T07:04:46;101476.75;;;21.67;100.00
57568;BME280;43403;51.948;5.922;2022-08-03T07:07:12;101482.09;;;21.67;100.00
57568;BME280;43403;51.948;5.922;2022-08-03T07:09:39;101476.97;;;21.72;100.00
57568;BME280;43403;51.948;5.922;2022-08-03T07:12:07;101480.50;;;21.80;100.00
57568;BME280;43403;51.948;5.922;2022-08-03T07:14:33;101479.06;;;21.84;100.00
57568;BME280;43403;51.948;5.922;2022-08-03T07:17:00;101476.97;;;21.92;100.00
57568;BME280;43403;51.948;5.922;2022-08-03T07:19:29;101481.69;;;21.97;100.00
57568;BME280;43403;51.948;5.922;2022-08-03T07:21:56;101481.28;;;22.00;100.00
57568;BME280;43403;51.948;5.922;2022-08-03T07:24:27;101481.91;;;22.02;100.00
57568;BME280;43403;51.948;5.922;2022-08-03T07:26:54;101485.00;;;22.06;100.00
57568;BME280;43403;51.948;5.922;2022-08-03T07:29:20;101493.41;;;22.16;100.00
57568;BME280;43403;51.948;5.922;2022-08-03T07:31:47;101485.81;;;22.20;100.00
57568;BME280;43403;51.948;5.922;2022-08-03T07:34:13;101490.16;;;22.27;100.00
57568;BME280;43403;51.948;5.922;2022-08-03T07:36:40;101487.69;;;22.33;100.00
57568;BME280;43403;51.948;5.922;2022-08-03T07:39:06;101495.47;;;22.41;100.00
57568;BME280;43403;51.948;5.922;2022-08-03T07:41:43;101489.69;;;22.50;100.00
57568;BME280;43403;51.948;5.922;2022-08-03T07:44:09;101487.22;;;22.49;100.00
57568;BME280;43403;51.948;5.922;2022-08-03T07:46:35;101491.31;;;22.51;100.00
57568;BME280;43403;51.948;5.922;2022-08-03T07:49:02;101494.19;;;22.57;100.00
57568;BME280;43403;51.948;5.922;2022-08-03T07:51:29;101493.75;;;22.66;100.00
57568;BME280;43403;51.948;5.922;2022-08-03T07:53:55;101491.25;;;22.71;100.00
57568;BME280;43403;51.948;5.922;2022-08-03T07:56:23;101480.97;;;22.82;100.00
57568;BME280;43403;51.948;5.922;2022-08-03T07:58:53;101490.19;;;22.86;100.00
57568;BME280;43403;51.948;5.922;2022-08-03T08:01:20;101491.63;;;22.88;100.00
57568;BME280;43403;51.948;5.922;2022-08-03T08:03:48;101491.16;;;22.98;100.00
57568;BME280;43403;51.948;5.922;2022-08-03T08:06:19;101494.06;;;23.03;100.00
57568;BME280;43403;51.948;5.922;2022-08-03T08:08:46;101489.53;;;23.04;100.00
57568;BME280;43403;51.948;5.922;2022-08-03T08:11:13;101493.41;;;23.08;100.00
57568;BME280;43403;51.948;5.922;2022-08-03T08:13:39;101486.41;;;23.07;100.00
57568;BME280;43403;51.948;5.922;2022-08-03T08:16:06;101487.41;;;23.19;100.00
57568;BME280;43403;51.948;5.922;2022-08-03T08:18:32;101484.28;;;23.22;100.00
57568;BME280;43403;51.948;5.922;2022-08-03T08:20:59;101480.78;;;23.22;100.00
57568;BME280;43403;51.948;5.922;2022-08-03T08:23:28;101486.69;;;23.30;100.00
57568;BME280;43403;51.948;5.922;2022-08-03T08:26:10;101493.19;;;23.48;100.00
57568;BME280;43403;51.948;5.922;2022-08-03T08:28:36;101486.66;;;23.69;100.00
57568;BME280;43403;51.948;5.922;2022-08-03T08:31:03;101491.84;;;23.96;100.00
57568;BME280;43403;51.948;5.922;2022-08-03T08:33:29;101487.81;;;24.30;100.00
57568;BME280;43403;51.948;5.922;2022-08-03T08:36:16;101489.34;;;24.63;100.00
57568;BME280;43403;51.948;5.922;2022-08-03T08:38:43;101489.09;;;25.01;100.00
57568;BME280;43403;51.948;5.922;2022-08-03T08:41:12;101491.00;;;25.31;100.00
57568;BME280;43403;51.948;5.922;2022-08-03T08:43:39;101489.88;;;25.51;100.00
57568;BME280;43403;51.948;5.922;2022-08-03T08:46:07;101479.78;;;25.76;96.57
57568;BME280;43403;51.948;5.922;2022-08-03T08:48:40;101491.50;;;25.94;94.08
57568;BME280;43403;51.948;5.922;2022-08-03T08:51:07;101484.47;;;26.04;94.72
57568;BME280;43403;51.948;5.922;2022-08-03T08:53:40;101497.31;;;26.38;92.93
57568;BME280;43403;51.948;5.922;2022-08-03T08:56:07;101492.16;;;26.48;90.24
57568;BME280;43403;51.948;5.922;2022-08-03T08:58:41;101494.94;;;26.77;88.09
57568;BME280;43403;51.948;5.922;2022-08-03T09:01:09;101496.22;;;26.86;86.53
57568;BME280;43403;51.948;5.922;2022-08-03T09:03:36;101501.75;;;27.08;83.83
57568;BME280;43403;51.948;5.922;2022-08-03T09:06:02;101491.13;;;27.30;84.65
57568;BME280;43403;51.948;5.922;2022-08-03T09:08:31;101488.72;;;27.46;81.77
57568;BME280;43403;51.948;5.922;2022-08-03T09:10:58;101480.00;;;27.72;82.07
57568;BME280;43403;51.948;5.922;2022-08-03T09:13:24;101482.97;;;27.88;80.32
57568;BME280;43403;51.948;5.922;2022-08-03T09:18:34;101477.16;;;27.96;78.60
57568;BME280;43403;51.948;5.922;2022-08-03T09:21:19;101481.28;;;28.20;78.43
57568;BME280;43403;51.948;5.922;2022-08-03T09:23:59;101485.38;;;28.23;77.91
57568;BME280;43403;51.948;5.922;2022-08-03T09:26:29;101480.13;;;28.16;77.57
57568;BME280;43403;51.948;5.922;2022-08-03T09:28:59;101485.00;;;28.36;79.19
57568;BME280;43403;51.948;5.922;2022-08-03T09:31:37;101488.00;;;28.57;77.58
57568;BME280;43403;51.948;5.922;2022-08-03T09:34:11;101475.88;;;28.82;77.56
57568;BME280;43403;51.948;5.922;2022-08-03T09:36:46;101485.84;;;28.81;75.17
57568;BME280;43403;51.948;5.922;2022-08-03T09:39:20;101482.56;;;28.79;75.69
57568;BME280;43403;51.948;5.922;2022-08-03T09:42:13;101479.56;;;28.75;75.25
57568;BME280;43403;51.948;5.922;2022-08-03T09:44:43;101492.13;;;28.87;76.44
57568;BME280;43403;51.948;5.922;2022-08-03T09:47:10;101482.75;;;28.94;75.23
57568;BME280;43403;51.948;5.922;2022-08-03T09:49:37;101488.66;;;29.13;74.88
57568;BME280;43403;51.948;5.922;2022-08-03T09:52:14;101488.53;;;29.30;74.23
57568;BME280;43403;51.948;5.922;2022-08-03T09:55:13;101483.56;;;29.49;74.14
57568;BME280;43403;51.948;5.922;2022-08-03T09:58:07;101482.47;;;29.45;72.89
57568;BME280;43403;51.948;5.922;2022-08-03T10:01:09;101487.16;;;29.28;73.12
57568;BME280;43403;51.948;5.922;2022-08-03T10:03:56;101488.97;;;29.17;72.24
57568;BME280;43403;51.948;5.922;2022-08-03T10:06:30;101488.19;;;29.49;72.82
57568;BME280;43403;51.948;5.922;2022-08-03T10:09:11;101479.97;;;29.71;72.99
57568;BME280;43403;51.948;5.922;2022-08-03T10:11:38;101483.59;;;29.82;71.04
57568;BME280;43403;51.948;5.922;2022-08-03T10:14:10;101486.78;;;30.11;72.30
57568;BME280;43403;51.948;5.922;2022-08-03T10:16:45;101485.69;;;30.12;69.18
57568;BME280;43403;51.948;5.922;2022-08-03T10:19:12;101483.84;;;30.23;70.15
57568;BME280;43403;51.948;5.922;2022-08-03T10:21:45;101481.66;;;30.20;70.57
57568;BME280;43403;51.948;5.922;2022-08-03T10:24:14;101474.75;;;30.39;68.86
57568;BME280;43403;51.948;5.922;2022-08-03T10:26:43;101472.88;;;30.45;68.82
57568;BME280;43403;51.948;5.922;2022-08-03T10:29:23;101477.72;;;30.38;67.81
57568;BME280;43403;51.948;5.922;2022-08-03T10:31:55;101472.50;;;30.21;67.23
57568;BME280;43403;51.948;5.922;2022-08-03T10:34:33;101474.34;;;30.68;68.00
57568;BME280;43403;51.948;5.922;2022-08-03T10:37:04;101473.44;;;30.52;65.91
57568;BME280;43403;51.948;5.922;2022-08-03T10:39:33;101464.31;;;30.73;65.06
57568;BME280;43403;51.948;5.922;2022-08-03T10:42:02;101470.28;;;30.81;65.20
57568;BME280;43403;51.948;5.922;2022-08-03T10:44:38;101466.50;;;30.87;64.84
57568;BME280;43403;51.948;5.922;2022-08-03T10:47:08;101453.56;;;30.94;64.46
57568;BME280;43403;51.948;5.922;2022-08-03T10:49:35;101465.53;;;31.13;65.32
57568;BME280;43403;51.948;5.922;2022-08-03T10:52:03;101460.09;;;31.24;65.53
57568;BME280;43403;51.948;5.922;2022-08-03T10:54:43;101451.75;;;31.56;66.75
57568;BME280;43403;51.948;5.922;2022-08-03T10:57:42;101453.91;;;31.54;64.49
57568;BME280;43403;51.948;5.922;2022-08-03T11:00:16;101450.63;;;31.78;63.45
57568;BME280;43403;51.948;5.922;2022-08-03T11:03:09;101444.38;;;31.82;64.27
57568;BME280;43403;51.948;5.922;2022-08-03T11:05:38;101442.97;;;32.00;62.89
57568;BME280;43403;51.948;5.922;2022-08-03T11:08:29;101429.72;;;31.93;62.61
57568;BME280;43403;51.948;5.922;2022-08-03T11:10:59;101427.19;;;32.23;63.66
57568;BME280;43403;51.948;5.922;2022-08-03T11:13:27;101428.25;;;32.27;61.64
57568;BME280;43403;51.948;5.922;2022-08-03T11:15:59;101425.75;;;32.41;60.44
57568;BME280;43403;51.948;5.922;2022-08-03T11:18:30;101431.00;;;32.22;60.56
57568;BME280;43403;51.948;5.922;2022-08-03T11:20:58;101420.09;;;32.32;58.89
57568;BME280;43403;51.948;5.922;2022-08-03T11:23:45;101433.47;;;32.08;59.26
57568;BME280;43403;51.948;5.922;2022-08-03T11:26:32;101423.44;;;31.98;59.82
57568;BME280;43403;51.948;5.922;2022-08-03T11:29:30;101426.97;;;32.09;59.61
57568;BME280;43403;51.948;5.922;2022-08-03T11:31:57;101417.63;;;32.41;60.33
57568;BME280;43403;51.948;5.922;2022-08-03T11:34:24;101419.34;;;32.71;61.41
57568;BME280;43403;51.948;5.922;2022-08-03T11:37:20;101419.50;;;32.90;58.25
57568;BME280;43403;51.948;5.922;2022-08-03T11:39:50;101415.91;;;33.00;56.84
57568;BME280;43403;51.948;5.922;2022-08-03T11:44:54;101428.38;;;33.11;55.73
57568;BME280;43403;51.948;5.922;2022-08-03T11:47:22;101432.66;;;33.17;57.62
57568;BME280;43403;51.948;5.922;2022-08-03T11:49:51;101439.47;;;33.15;56.60
57568;BME280;43403;51.948;5.922;2022-08-03T11:52:19;101432.97;;;33.10;56.24
57568;BME280;43403;51.948;5.922;2022-08-03T11:54:54;101432.28;;;32.89;57.57
57568;BME280;43403;51.948;5.922;2022-08-03T12:00:26;101443.72;;;32.86;55.93
57568;BME280;43403;51.948;5.922;2022-08-03T12:02:55;101439.31;;;32.96;57.28
57568;BME280;43403;51.948;5.922;2022-08-03T12:05:35;101430.66;;;33.28;57.23
57568;BME280;43403;51.948;5.922;2022-08-03T12:08:03;101437.13;;;33.32;55.17
57568;BME280;43403;51.948;5.922;2022-08-03T12:10:32;101435.00;;;32.89;54.84
57568;BME280;43403;51.948;5.922;2022-08-03T12:13:00;101436.84;;;33.34;56.95
57568;BME280;43403;51.948;5.922;2022-08-03T12:15:28;101440.97;;;33.31;54.21
57568;BME280;43403;51.948;5.922;2022-08-03T12:17:56;101442.22;;;33.09;54.67
57568;BME280;43403;51.948;5.922;2022-08-03T12:20:27;101439.81;;;33.37;55.29
57568;BME280;43403;51.948;5.922;2022-08-03T12:23:02;101437.50;;;33.55;54.58
57568;BME280;43403;51.948;5.922;2022-08-03T12:25:29;101437.91;;;33.72;54.86
57568;BME280;43403;51.948;5.922;2022-08-03T12:28:20;101436.38;;;33.85;54.20
57568;BME280;43403;51.948;5.922;2022-08-03T12:31:07;101439.63;;;33.87;53.79
57568;BME280;43403;51.948;5.922;2022-08-03T12:33:59;101429.00;;;33.61;53.13
57568;BME280;43403;51.948;5.922;2022-08-03T12:36:31;101429.50;;;33.34;53.22
57568;BME280;43403;51.948;5.922;2022-08-03T12:39:03;101431.94;;;33.70;53.75
57568;BME280;43403;51.948;5.922;2022-08-03T12:41:35;101428.19;;;33.61;53.51
57568;BME280;43403;51.948;5.922;2022-08-03T12:44:04;101429.63;;;33.53;52.70
57568;BME280;43403;51.948;5.922;2022-08-03T12:46:40;101426.53;;;33.60;53.38
57568;BME280;43403;51.948;5.922;2022-08-03T12:49:14;101426.78;;;33.68;52.55
57568;BME280;43403;51.948;5.922;2022-08-03T12:54:28;101433.56;;;33.95;52.25
57568;BME280;43403;51.948;5.922;2022-08-03T12:57:07;101440.56;;;33.77;51.68
57568;BME280;43403;51.948;5.922;2022-08-03T12:59:44;101432.59;;;33.86;51.57
57568;BME280;43403;51.948;5.922;2022-08-03T13:02:24;101430.34;;;33.93;52.29
57568;BME280;43403;51.948;5.922;2022-08-03T13:04:52;101435.53;;;33.90;52.00
57568;BME280;43403;51.948;5.922;2022-08-03T13:07:20;101430.06;;;34.19;53.49
57568;BME280;43403;51.948;5.922;2022-08-03T13:09:49;101429.50;;;34.41;51.53
57568;BME280;43403;51.948;5.922;2022-08-03T13:12:23;101427.59;;;34.79;52.44
57568;BME280;43403;51.948;5.922;2022-08-03T13:14:59;101429.00;;;34.77;51.50
57568;BME280;43403;51.948;5.922;2022-08-03T13:17:26;101419.66;;;34.83;51.49
57568;BME280;43403;51.948;5.922;2022-08-03T13:19:53;101423.31;;;34.54;51.17
57568;BME280;43403;51.948;5.922;2022-08-03T13:22:23;101425.31;;;34.67;52.28